Daretown, New Jersey
Current Conditions -  °F | °C
As of 12:54 PM on Thursday 18 Dec 2014 (Local Time) from KMIV Reporting Station
Broken Clouds Broken Clouds  
Wind Chill: -2°   Ceiling: 3700
Heat Index:   Visibility: 10mi
Dew Point: -6°   Wind: 18mph
Humidity: 53%   Direction: 320°NW
Pressure: 30.04"   Gusts: 31mph
Location:  39.5646°N, 75.1874°W
Report Text: KMIV 181754Z AUTO 32016G27KT 10SM BKN037 03/M06 A3004 RMK AO2 PK WND 29027/1751 SLP172 T00331056 10044 20006 58022
Loading
Personal Weather Stations






























Interactive Weather Map New forecast layout! Learn more

10-Day Weather Forecast

Advertisements
Track Severe Weather on mobile